ADDS METAR Data INFO
IDs: Format: Raw Decoded Include TAF

Data at: 2306 UTC 21 Feb 2018

KBNO 212253Z AUTO 24015KT 10SM CLR M01/M08 A3004 RMK AO2 SLP201 T10111078
KBNO 212153Z AUTO 22014G21KT 10SM FEW029 M01/M07 A3004 RMK AO2 SLP202 T10061067
KBNO 212142Z AUTO 22009G17KT 10SM SCT029 00/M07 A3004 RMK AO2 T00001072
KBNO 212053Z AUTO 01003KT 10SM OVC025 M01/M07 A3005 RMK AO2 SNE18 SLP204 P0000 60000 T10111067 58009
KBNO 212039Z AUTO 00000KT 10SM BKN024 OVC045 M02/M07 A3005 RMK AO2 SNE18 P0000 T10171072
KBNO 212002Z AUTO 00000KT 9SM -SN SCT025 BKN034 OVC043 M02/M07 A3007 RMK AO2 P0000 T10221072
KBNO 211953Z AUTO 13004KT 9SM -SN FEW018 BKN025 OVC043 M02/M07 A3007 RMK AO2 SNB11 SLP213 P0000 T10221072
KBNO 211914Z AUTO 18003KT 7SM -SN FEW018 BKN026 OVC033 M03/M06 A3008 RMK AO2 SNB11 P0000 T10281061
KBNO 211853Z AUTO 00000KT 10SM FEW017 SCT023 OVC033 M03/M07 A3008 RMK AO2 SLP217 T10281072
KBNO 211849Z AUTO 00000KT 10SM FEW017 SCT023 OVC033 M03/M07 A3008 RMK AO2
KBNO 211835Z AUTO VRB03KT 10SM BKN016 BKN023 OVC034 M03/M07 A3008 RMK AO2 T10281067
KBNO 211753Z AUTO 31003KT 10SM FEW013 OVC036 M03/M07 A3007 RMK AO2 SLP216 60004 T10281067 11028 21072 51009
KBNO 211710Z AUTO 22005KT 10SM SCT012 OVC039 M04/M06 A3007 RMK AO2 T10391061
KBNO 211653Z AUTO 21006KT 10SM BKN011 M04/M06 A3007 RMK AO2 SNE20 SLP215 P0000 T10391056
KBNO 211638Z AUTO 19003KT 10SM SCT029 SCT095 M04/M06 A3006 RMK AO2 SNE20 P0000 T10441061
KBNO 211629Z AUTO 18005KT 10SM FEW015 BKN029 BKN095 M05/M07 A3006 RMK AO2 SNE20 P0000 T10501067
KBNO 211553Z AUTO 14004KT 9SM -SN SCT014 OVC030 M06/M06 A3006 RMK AO2 SNE06B48 SLP215 P0000 T10561061
KBNO 211510Z AUTO 12005KT 9SM BKN014 OVC026 M07/M08 A3005 RMK AO2 SNE06 P0000 T10721078
KBNO 211453Z AUTO 12004KT 3SM -SN BR SCT018 BKN027 OVC110 M07/M07 A3004 RMK AO2 SLP210 P0000 60004 T10671072 53006
KBNO 211439Z AUTO 15004KT 5SM -SN BR SCT027 BKN035 OVC100 M07/M07 A3004 RMK AO2 P0000 T10671072
KBNO 211400Z AUTO 16004KT 3SM -SN BR OVC027 M06/M07 A3003 RMK AO2 P0000 T10611067
KBNO 211353Z AUTO 16005KT 2 1/2SM -SN BR OVC026 M06/M07 A3003 RMK AO2 SLP205 P0001 T10561067
KBNO 211344Z AUTO 16005KT 3SM -SN BR OVC026 M06/M06 A3003 RMK AO2 P0001 T10561061
KBNO 211253Z AUTO 16005KT 2 1/2SM -SN BR OVC018 M06/M06 A3002 RMK AO2 SLP200 P0003 T10561061
KBNO 211238Z AUTO 16006KT 1 3/4SM -SN BR OVC013 M06/M06 A3002 RMK AO2 P0002 T10561061
KBNO 210753Z AUTO 00000KT 10SM OVC050 M05/M09 A3004 RMK AO2 SLP208 T10501089 410281183
KBNO 210653Z AUTO 00000KT 10SM OVC060 M05/M10 A3003 RMK AO2 SLP209 T10501100
KBNO 210553Z AUTO 00000KT 10SM OVC060 M05/M11 A3003 RMK AO2 SLP212 T10501111 11033 21056 53006
KBNO 201453Z AUTO 16004KT 10SM OVC038 M15/M17 A3007 RMK AO2 SLP247 T11501172 51010 $
KBNO 201353Z AUTO 00000KT 10SM OVC036 M15/M17 A3006 RMK AO2 SLP241 T11501172 $
KBNO 201253Z AUTO 28004KT 10SM CLR M17/M19 A3005 RMK AO2 SLP241 T11721194 $
KBNO 201153Z AUTO 27006KT 10SM CLR M18/M21 A3004 RMK AO2 SLP235 T11831206 11128 21183 51002 $